createdAt,value
2019-03-16T00:00:59.357Z,67.10
2019-03-16T00:03:25.768Z,67.00
2019-03-16T00:05:52.257Z,68.00
2019-03-16T00:08:18.632Z,68.20
2019-03-16T00:10:46.911Z,68.20
2019-03-16T00:13:15.945Z,68.50
2019-03-16T00:15:41.531Z,68.50
2019-03-16T00:18:07.872Z,68.60
2019-03-16T00:20:54.080Z,68.20
2019-03-16T00:23:24.084Z,68.80
2019-03-16T00:25:50.508Z,68.50
2019-03-16T00:28:16.941Z,67.70
2019-03-16T00:30:43.324Z,67.70
2019-03-16T00:33:09.662Z,67.90
2019-03-16T00:35:36.138Z,68.10
2019-03-16T00:38:02.573Z,68.40
2019-03-16T00:40:28.920Z,69.00
2019-03-16T00:42:55.316Z,68.90
2019-03-16T00:45:21.622Z,69.60
2019-03-16T00:47:48.002Z,69.60
2019-03-16T00:50:14.386Z,69.30
2019-03-16T00:52:40.898Z,69.80
2019-03-16T00:55:08.352Z,70.00
2019-03-16T00:57:34.802Z,69.80
2019-03-16T01:00:02.010Z,69.40
2019-03-16T01:02:28.713Z,69.90
2019-03-16T01:04:55.110Z,71.40
2019-03-16T01:07:21.480Z,70.70
2019-03-16T01:09:47.930Z,70.10
2019-03-16T01:12:14.389Z,70.00
2019-03-16T01:14:40.828Z,70.00
2019-03-16T01:17:27.144Z,70.10
2019-03-16T01:19:53.557Z,70.10
2019-03-16T01:22:19.844Z,70.50
2019-03-16T01:24:46.268Z,71.40
2019-03-16T01:27:12.593Z,71.70
2019-03-16T01:29:39.058Z,71.30
2019-03-16T01:32:05.532Z,71.00
2019-03-16T01:34:32.003Z,70.60
2019-03-16T01:36:58.630Z,70.60
2019-03-16T01:39:25.611Z,70.40
2019-03-16T01:41:52.058Z,70.20
2019-03-16T01:44:18.498Z,70.20
2019-03-16T01:46:45.997Z,69.60
2019-03-16T01:49:12.516Z,70.10
2019-03-16T01:51:38.860Z,70.30
2019-03-16T01:54:05.173Z,71.00
2019-03-16T01:56:31.522Z,70.60
2019-03-16T01:58:57.954Z,70.30
2019-03-16T02:01:24.291Z,70.30
2019-03-16T02:03:50.645Z,70.10
2019-03-16T02:06:17.155Z,69.90
2019-03-16T02:08:43.569Z,70.20
2019-03-16T02:11:22.984Z,70.60
2019-03-16T02:13:49.469Z,70.70
2019-03-16T02:16:15.841Z,70.60
2019-03-16T02:18:42.280Z,70.40
2019-03-16T02:21:08.737Z,70.60
2019-03-16T02:23:46.095Z,70.10
2019-03-16T02:26:12.486Z,70.50
2019-03-16T02:28:38.879Z,70.50
2019-03-16T02:31:05.241Z,70.50
2019-03-16T02:33:31.694Z,70.30
2019-03-16T02:35:58.165Z,70.60
2019-03-16T02:38:24.617Z,70.70
2019-03-16T02:40:51.013Z,71.70
2019-03-16T02:43:17.340Z,70.90
2019-03-16T02:45:43.807Z,71.00
2019-03-16T02:48:10.322Z,71.30
2019-03-16T02:50:36.854Z,71.10
2019-03-16T02:53:03.353Z,71.30
2019-03-16T02:55:29.776Z,71.90
2019-03-16T02:57:57.446Z,72.00
2019-03-16T03:00:23.897Z,71.50
2019-03-16T03:02:50.418Z,71.00
2019-03-16T03:05:17.168Z,70.80
2019-03-16T03:07:43.487Z,71.10
2019-03-16T03:10:14.005Z,71.30
2019-03-16T03:12:40.325Z,71.30
2019-03-16T03:15:07.802Z,71.40
2019-03-16T03:17:48.176Z,71.90
2019-03-16T03:20:14.648Z,72.30
2019-03-16T03:22:41.213Z,73.30
2019-03-16T03:25:07.848Z,73.20
2019-03-16T03:27:34.302Z,72.80
2019-03-16T03:30:00.770Z,72.80
2019-03-16T03:32:27.199Z,72.90
2019-03-16T03:34:53.621Z,72.90
2019-03-16T03:37:20.030Z,72.80
2019-03-16T03:39:46.499Z,72.80
2019-03-16T03:42:13.287Z,72.50
2019-03-16T03:44:39.767Z,72.30
2019-03-16T03:47:06.192Z,72.10
2019-03-16T03:49:32.631Z,71.80
2019-03-16T03:51:59.087Z,71.80
2019-03-16T03:54:25.546Z,71.80
2019-03-16T03:56:52.050Z,72.00
2019-03-16T03:59:18.503Z,72.60
2019-03-16T04:01:44.989Z,72.40
2019-03-16T04:04:31.420Z,72.40
2019-03-16T04:06:57.976Z,72.40
2019-03-16T04:09:24.436Z,72.70
2019-03-16T04:11:51.854Z,72.50
2019-03-16T04:14:18.301Z,72.80
2019-03-16T04:16:44.733Z,73.30
2019-03-16T04:19:11.148Z,73.40
2019-03-16T04:21:37.588Z,73.60
2019-03-16T04:24:03.942Z,73.80
2019-03-16T04:26:31.614Z,74.10
2019-03-16T04:29:17.942Z,74.80
2019-03-16T04:31:44.524Z,74.40
2019-03-16T04:34:10.936Z,74.00
2019-03-16T04:36:37.252Z,73.60
2019-03-16T04:39:05.207Z,74.00
2019-03-16T04:41:31.748Z,74.20
2019-03-16T04:43:58.162Z,74.00
2019-03-16T04:46:24.534Z,73.50
2019-03-16T04:48:51.951Z,73.90
2019-03-16T04:51:18.254Z,73.70
2019-03-16T04:53:44.620Z,73.30
2019-03-16T04:56:30.962Z,73.10
2019-03-16T04:58:58.717Z,73.30
2019-03-16T05:01:25.101Z,74.30
2019-03-16T05:03:51.465Z,74.00
2019-03-16T05:06:17.872Z,73.40
2019-03-16T05:08:44.182Z,73.80
2019-03-16T05:11:10.621Z,74.60
2019-03-16T05:13:37.037Z,75.10
2019-03-16T05:16:03.497Z,74.80
2019-03-16T05:18:29.980Z,74.60
2019-03-16T05:20:56.282Z,74.20
2019-03-16T05:23:23.997Z,73.80
2019-03-16T05:25:50.452Z,74.30
2019-03-16T05:28:16.833Z,74.80
2019-03-16T05:30:43.262Z,75.10
2019-03-16T05:33:09.671Z,74.60
2019-03-16T05:35:36.327Z,73.80
2019-03-16T05:38:02.772Z,73.80
2019-03-16T05:40:29.358Z,73.50
2019-03-16T05:42:57.720Z,74.30
2019-03-16T05:45:24.312Z,73.80
2019-03-16T05:47:50.775Z,73.70
2019-03-16T05:50:17.214Z,73.40
2019-03-16T05:52:43.695Z,73.40
2019-03-16T05:55:10.164Z,73.30
2019-03-16T05:57:37.904Z,73.50
2019-03-16T06:00:14.370Z,74.10
2019-03-16T06:02:40.702Z,74.80
2019-03-16T06:05:10.794Z,75.50
2019-03-16T06:07:35.364Z,75.20
2019-03-16T06:10:03.228Z,75.30
2019-03-16T06:12:29.688Z,75.90
2019-03-16T06:14:56.139Z,76.90
2019-03-16T06:17:22.558Z,76.10
2019-03-16T06:19:48.964Z,75.20
2019-03-16T06:22:15.528Z,74.60
2019-03-16T06:24:41.972Z,74.10
2019-03-16T06:27:08.419Z,74.10
2019-03-16T06:29:34.836Z,74.50
2019-03-16T06:32:01.156Z,75.20
2019-03-16T06:34:28.370Z,74.60
2019-03-16T06:37:14.999Z,74.40
2019-03-16T06:39:42.848Z,74.10
2019-03-16T06:42:09.274Z,74.10
2019-03-16T06:44:37.581Z,73.20
2019-03-16T06:47:05.741Z,73.30
2019-03-16T06:49:32.705Z,73.30
2019-03-16T06:51:59.198Z,74.00
2019-03-16T06:54:45.480Z,73.80
2019-03-16T06:57:12.130Z,74.30
2019-03-16T06:59:52.114Z,74.20
2019-03-16T07:02:18.549Z,74.30
2019-03-16T07:04:45.054Z,73.50
2019-03-16T07:07:11.521Z,73.70
2019-03-16T07:09:37.952Z,73.60
2019-03-16T07:12:04.435Z,73.30
2019-03-16T07:14:31.328Z,73.80
2019-03-16T07:17:02.268Z,74.20
2019-03-16T07:19:26.235Z,73.90
2019-03-16T07:21:52.647Z,73.70
2019-03-16T07:24:19.001Z,74.10
2019-03-16T07:26:48.329Z,74.40
2019-03-16T07:29:14.763Z,74.40
2019-03-16T07:31:41.478Z,73.90
2019-03-16T07:34:10.535Z,73.40
2019-03-16T07:36:37.023Z,73.30
2019-03-16T07:39:06.073Z,73.10
2019-03-16T07:41:34.921Z,73.20
2019-03-16T07:44:01.374Z,72.70
2019-03-16T07:46:27.861Z,72.60
2019-03-16T07:48:54.945Z,72.80
2019-03-16T07:51:22.759Z,72.90
2019-03-16T07:53:50.522Z,72.70
2019-03-16T07:56:17.118Z,72.80
2019-03-16T07:58:43.694Z,72.30
2019-03-16T08:01:10.157Z,72.00
2019-03-16T08:03:36.611Z,72.00
2019-03-16T08:06:03.012Z,72.20
2019-03-16T08:08:29.297Z,72.40
2019-03-16T08:10:55.723Z,71.80
2019-03-16T08:13:27.701Z,71.80
2019-03-16T08:15:58.634Z,72.00
2019-03-16T08:18:27.029Z,71.90
2019-03-16T08:20:53.450Z,71.70
2019-03-16T08:23:19.947Z,71.60
2019-03-16T08:25:46.434Z,70.30
2019-03-16T08:28:15.909Z,70.60
2019-03-16T08:30:42.370Z,70.50
2019-03-16T08:33:12.653Z,70.90
2019-03-16T08:35:39.136Z,70.70
2019-03-16T08:38:05.587Z,70.60
2019-03-16T08:40:32.026Z,69.90
2019-03-16T08:42:58.441Z,69.30
2019-03-16T08:45:24.821Z,69.10
2019-03-16T08:47:51.282Z,69.10
2019-03-16T08:50:17.841Z,69.30
2019-03-16T08:52:45.541Z,68.70
2019-03-16T08:55:11.982Z,68.20
2019-03-16T08:57:38.563Z,67.40
2019-03-16T09:00:12.780Z,67.10
2019-03-16T09:02:39.354Z,67.60
2019-03-16T09:05:06.717Z,67.20
2019-03-16T09:07:44.151Z,66.60
2019-03-16T09:10:10.760Z,66.00
2019-03-16T09:12:37.189Z,66.00
2019-03-16T09:15:15.015Z,65.10
2019-03-16T09:18:01.213Z,65.40
2019-03-16T09:20:27.711Z,65.20
2019-03-16T09:22:54.171Z,65.40
2019-03-16T09:25:20.607Z,65.80
2019-03-16T09:27:47.180Z,65.50
2019-03-16T09:30:15.064Z,65.10
2019-03-16T09:32:41.550Z,64.20
2019-03-16T09:35:08.008Z,62.90
2019-03-16T09:37:34.451Z,62.90
2019-03-16T09:40:00.869Z,62.60
2019-03-16T09:42:27.287Z,61.50
2019-03-16T09:44:53.743Z,60.50
2019-03-16T09:47:20.136Z,60.60
2019-03-16T09:49:46.640Z,60.20
2019-03-16T09:52:13.283Z,59.20
2019-03-16T09:54:39.708Z,59.10
2019-03-16T09:57:06.078Z,59.20
2019-03-16T09:59:32.502Z,59.50
2019-03-16T10:01:58.841Z,59.40
2019-03-16T10:04:25.266Z,59.30
2019-03-16T10:06:52.769Z,59.30
2019-03-16T10:09:19.130Z,60.10
2019-03-16T10:11:45.624Z,59.50
2019-03-16T10:14:12.076Z,60.30
2019-03-16T10:16:38.577Z,59.40
2019-03-16T10:19:05.085Z,59.60
2019-03-16T10:21:31.595Z,59.90
2019-03-16T10:23:58.030Z,59.90
2019-03-16T10:26:24.383Z,59.90
2019-03-16T10:28:50.814Z,60.00
2019-03-16T10:31:17.256Z,60.00
2019-03-16T10:33:43.832Z,59.70
2019-03-16T10:36:10.402Z,59.80
2019-03-16T10:38:38.437Z,59.40
2019-03-16T10:41:05.030Z,59.60
2019-03-16T10:43:31.499Z,59.40
2019-03-16T10:45:57.947Z,58.40
2019-03-16T10:48:24.398Z,58.70
2019-03-16T10:50:50.842Z,58.40
2019-03-16T10:53:18.096Z,57.80
2019-03-16T10:55:44.829Z,58.50
2019-03-16T10:58:11.254Z,59.10
2019-03-16T11:00:37.943Z,58.00
2019-03-16T11:03:04.434Z,58.00
2019-03-16T11:05:30.859Z,58.30
2019-03-16T11:07:57.417Z,57.10
2019-03-16T11:10:23.849Z,57.30
2019-03-16T11:12:50.327Z,57.20
2019-03-16T11:15:16.796Z,57.50
2019-03-16T11:17:43.189Z,56.60
2019-03-16T11:20:14.056Z,56.90
2019-03-16T11:22:40.479Z,57.50
2019-03-16T11:25:06.881Z,57.60
2019-03-16T11:27:53.065Z,56.60
2019-03-16T11:30:19.507Z,56.70
2019-03-16T11:32:45.937Z,56.30
2019-03-16T11:35:12.760Z,55.30
2019-03-16T11:37:39.189Z,55.70
2019-03-16T11:40:27.535Z,56.20
2019-03-16T11:42:54.046Z,55.20
2019-03-16T11:45:20.484Z,54.40
2019-03-16T11:47:46.952Z,54.80
2019-03-16T11:50:13.331Z,54.40
2019-03-16T11:52:39.870Z,54.10
2019-03-16T11:55:09.135Z,54.40
2019-03-16T11:57:36.532Z,53.70
2019-03-16T12:00:05.241Z,54.10
2019-03-16T12:02:31.736Z,54.40
2019-03-16T12:04:59.369Z,53.90
2019-03-16T12:07:25.857Z,53.30
2019-03-16T12:09:52.309Z,53.20
2019-03-16T12:12:18.901Z,53.30
2019-03-16T12:14:45.359Z,51.80
2019-03-16T12:17:22.609Z,52.10
2019-03-16T12:19:50.043Z,51.40
2019-03-16T12:22:16.408Z,51.20
2019-03-16T12:24:42.842Z,51.10
2019-03-16T12:27:09.230Z,50.70
2019-03-16T12:29:35.612Z,49.90
2019-03-16T12:32:15.089Z,50.80
2019-03-16T12:34:41.577Z,50.80
2019-03-16T12:37:07.992Z,51.00
2019-03-16T12:39:35.604Z,50.30
2019-03-16T12:42:02.385Z,50.30
2019-03-16T12:44:28.930Z,50.20
2019-03-16T12:46:56.500Z,49.70
2019-03-16T12:49:22.992Z,50.00
2019-03-16T12:51:49.548Z,49.80
2019-03-16T12:54:16.042Z,49.30
2019-03-16T12:56:43.581Z,48.50
2019-03-16T12:59:11.036Z,48.70
2019-03-16T13:01:37.825Z,48.20
2019-03-16T13:04:04.381Z,48.80
2019-03-16T13:06:31.868Z,48.60
2019-03-16T13:08:58.317Z,47.00
2019-03-16T13:11:24.711Z,46.10
2019-03-16T13:13:51.060Z,46.90
2019-03-16T13:16:17.629Z,46.80
2019-03-16T13:18:44.120Z,46.10
2019-03-16T13:21:10.491Z,47.00
2019-03-16T13:23:36.894Z,46.40
2019-03-16T13:26:03.217Z,46.90
2019-03-16T13:28:29.714Z,46.90
2019-03-16T13:30:56.142Z,46.40
2019-03-16T13:33:22.570Z,46.30
2019-03-16T13:35:48.950Z,46.50
2019-03-16T13:38:15.430Z,46.50
2019-03-16T13:40:41.929Z,46.30
2019-03-16T13:43:08.323Z,47.00
2019-03-16T13:45:34.789Z,46.40
2019-03-16T13:48:01.133Z,46.10
2019-03-16T13:50:27.553Z,46.40
2019-03-16T13:52:54.407Z,44.70
2019-03-16T13:55:20.818Z,44.90
2019-03-16T13:57:47.511Z,45.80
2019-03-16T14:00:19.601Z,45.80
2019-03-16T14:02:47.907Z,46.30
2019-03-16T14:05:14.754Z,45.60
2019-03-16T14:07:41.673Z,45.10
2019-03-16T14:10:23.184Z,45.40
2019-03-16T14:12:49.627Z,45.80
2019-03-16T14:15:16.051Z,45.10
2019-03-16T14:17:43.047Z,44.10
2019-03-16T14:20:29.792Z,43.10
2019-03-16T14:22:56.813Z,42.20
2019-03-16T14:25:23.219Z,42.00
2019-03-16T14:27:49.709Z,41.70
2019-03-16T14:30:34.757Z,40.60
2019-03-16T14:32:46.274Z,40.30
2019-03-16T14:35:12.954Z,40.80
2019-03-16T14:37:39.626Z,40.80
2019-03-16T14:40:14.880Z,40.40
2019-03-16T14:42:41.539Z,40.90
2019-03-16T14:45:10.092Z,39.60
2019-03-16T14:47:36.629Z,38.60
2019-03-16T14:50:06.926Z,39.10
2019-03-16T14:52:34.597Z,39.50
2019-03-16T14:55:01.062Z,40.30
2019-03-16T14:57:28.931Z,40.60
2019-03-16T14:59:55.911Z,40.40
2019-03-16T15:02:22.407Z,39.50
2019-03-16T15:04:48.771Z,40.20
2019-03-16T15:07:15.184Z,39.10
2019-03-16T15:09:41.615Z,38.80
2019-03-16T15:12:08.016Z,37.80
2019-03-16T15:14:34.382Z,37.40
2019-03-16T15:17:00.810Z,38.30
2019-03-16T15:19:27.226Z,38.30
2019-03-16T15:21:53.698Z,37.70
2019-03-16T15:24:20.307Z,37.90
2019-03-16T15:26:46.760Z,37.70
2019-03-16T15:29:13.308Z,37.30
2019-03-16T15:31:39.763Z,35.90
2019-03-16T15:34:06.284Z,35.80
2019-03-16T15:36:34.572Z,36.20
2019-03-16T15:39:01.171Z,35.20
2019-03-16T15:41:30.533Z,32.90
2019-03-16T15:43:57.171Z,31.30
2019-03-16T15:46:23.600Z,31.20
2019-03-16T15:48:50.191Z,31.80
2019-03-16T15:51:16.654Z,32.80
2019-03-16T15:53:43.169Z,33.10
2019-03-16T15:56:09.747Z,32.90
2019-03-16T15:58:36.142Z,31.80
2019-03-16T16:01:04.136Z,30.30
2019-03-16T16:03:30.764Z,29.80
2019-03-16T16:05:57.258Z,30.40
2019-03-16T16:08:23.603Z,31.50
2019-03-16T16:11:00.379Z,32.50
2019-03-16T16:13:18.233Z,33.70
2019-03-16T16:15:44.808Z,35.20
2019-03-16T16:18:11.346Z,36.50
2019-03-16T16:20:37.677Z,37.30
2019-03-16T16:23:04.026Z,37.20
2019-03-16T16:25:30.434Z,37.50
2019-03-16T16:27:56.869Z,37.90
2019-03-16T16:30:23.375Z,38.00
2019-03-16T16:32:49.834Z,38.00
2019-03-16T16:35:16.293Z,37.60
2019-03-16T16:37:42.750Z,37.10
2019-03-16T16:40:16.882Z,36.80
2019-03-16T16:42:43.309Z,36.70
2019-03-16T16:45:11.196Z,36.80
2019-03-16T16:47:37.584Z,37.30
2019-03-16T16:50:07.622Z,38.10
2019-03-16T16:52:34.033Z,39.20
2019-03-16T16:55:00.497Z,41.90
2019-03-16T16:57:26.975Z,43.10
2019-03-16T16:59:53.425Z,44.20
2019-03-16T17:02:20.883Z,45.20
2019-03-16T17:04:47.289Z,46.10
2019-03-16T17:07:13.599Z,46.70
2019-03-16T17:09:39.941Z,47.10
2019-03-16T17:12:06.387Z,47.50
2019-03-16T17:14:32.752Z,48.50
2019-03-16T17:16:59.206Z,48.10
2019-03-16T17:19:25.639Z,48.30
2019-03-16T17:21:52.245Z,48.60
2019-03-16T17:24:18.712Z,49.00
2019-03-16T17:27:05.026Z,49.00
2019-03-16T17:29:31.609Z,49.30
2019-03-16T17:31:58.203Z,49.30
2019-03-16T17:34:24.656Z,49.70
2019-03-16T17:36:51.225Z,49.70
2019-03-16T17:39:17.602Z,50.10
2019-03-16T17:41:44.949Z,50.40
2019-03-16T17:44:11.412Z,50.60
2019-03-16T17:46:37.910Z,50.40
2019-03-16T17:49:15.150Z,50.10
2019-03-16T17:51:41.605Z,50.30
2019-03-16T17:54:08.209Z,51.50
2019-03-16T17:56:34.704Z,51.70
2019-03-16T17:59:01.155Z,52.30
2019-03-16T18:01:27.844Z,52.00
2019-03-16T18:03:54.336Z,51.70
2019-03-16T18:06:20.764Z,51.90
2019-03-16T18:08:47.216Z,52.40
2019-03-16T18:11:13.719Z,53.00
2019-03-16T18:13:40.270Z,54.20
2019-03-16T18:16:06.744Z,58.10
2019-03-16T18:18:33.189Z,57.90
2019-03-16T18:20:59.779Z,57.70
2019-03-16T18:23:26.308Z,55.00
2019-03-16T18:25:52.684Z,54.30
2019-03-16T18:28:19.275Z,54.40
2019-03-16T18:30:45.675Z,54.90
2019-03-16T18:33:12.100Z,54.60
2019-03-16T18:35:39.905Z,54.90
2019-03-16T18:38:26.207Z,54.80
2019-03-16T18:40:52.617Z,55.30
2019-03-16T18:43:19.176Z,55.50
2019-03-16T18:45:45.714Z,55.20
2019-03-16T18:48:12.299Z,55.50
2019-03-16T18:50:39.070Z,55.60
2019-03-16T18:53:05.546Z,55.70
2019-03-16T18:55:39.087Z,55.70
2019-03-16T18:58:06.708Z,57.20
2019-03-16T19:00:33.059Z,58.80
2019-03-16T19:02:59.726Z,58.90
2019-03-16T19:05:27.192Z,58.50
2019-03-16T19:07:53.888Z,57.40
2019-03-16T19:10:20.339Z,58.20
2019-03-16T19:12:46.884Z,57.20
2019-03-16T19:15:14.628Z,57.00
2019-03-16T19:17:41.331Z,57.10
2019-03-16T19:20:10.225Z,57.30
2019-03-16T19:22:37.051Z,56.90
2019-03-16T19:25:10.591Z,57.20
2019-03-16T19:27:37.013Z,57.20
2019-03-16T19:30:07.285Z,57.10
2019-03-16T19:32:36.567Z,57.40
2019-03-16T19:35:02.399Z,57.50
2019-03-16T19:37:28.859Z,57.40
2019-03-16T19:39:55.304Z,57.70
2019-03-16T19:42:21.774Z,57.50
2019-03-16T19:44:48.254Z,58.10
2019-03-16T19:47:14.652Z,57.90
2019-03-16T19:49:41.242Z,57.90
2019-03-16T19:52:07.707Z,57.90
2019-03-16T19:54:34.173Z,57.90
2019-03-16T19:57:00.587Z,57.60
2019-03-16T19:59:29.455Z,57.80
2019-03-16T20:01:59.278Z,58.00
2019-03-16T20:04:35.789Z,58.10
2019-03-16T20:06:55.270Z,58.10
2019-03-16T20:09:24.447Z,58.70
2019-03-16T20:11:49.842Z,58.80
2019-03-16T20:14:16.291Z,58.90
2019-03-16T20:16:42.677Z,59.20
2019-03-16T20:19:08.999Z,58.80
2019-03-16T20:21:35.474Z,58.60
2019-03-16T20:24:01.924Z,59.70
2019-03-16T20:26:28.465Z,59.90
2019-03-16T20:28:54.861Z,60.00
2019-03-16T20:31:21.350Z,60.20
2019-03-16T20:33:47.866Z,60.30
2019-03-16T20:36:14.295Z,59.90
2019-03-16T20:38:40.712Z,59.80
2019-03-16T20:41:07.073Z,59.70
2019-03-16T20:43:33.605Z,60.10
2019-03-16T20:45:59.964Z,60.30
2019-03-16T20:48:26.523Z,61.20
2019-03-16T20:50:53.011Z,60.80
2019-03-16T20:53:20.085Z,60.10
2019-03-16T20:55:50.092Z,60.00
2019-03-16T20:58:17.248Z,60.10
2019-03-16T21:00:45.135Z,60.30
2019-03-16T21:03:16.306Z,60.30
2019-03-16T21:05:40.553Z,60.80
2019-03-16T21:08:07.066Z,61.00
2019-03-16T21:10:33.599Z,60.60
2019-03-16T21:13:00.111Z,61.30
2019-03-16T21:15:26.527Z,61.70
2019-03-16T21:17:55.719Z,61.30
2019-03-16T21:20:21.151Z,61.80
2019-03-16T21:22:47.705Z,62.10
2019-03-16T21:25:15.019Z,62.50
2019-03-16T21:27:41.387Z,62.20
2019-03-16T21:30:15.499Z,61.90
2019-03-16T21:32:41.953Z,61.70
2019-03-16T21:35:08.356Z,61.90
2019-03-16T21:37:34.711Z,62.50
2019-03-16T21:40:01.406Z,62.40
2019-03-16T21:42:27.929Z,61.80
2019-03-16T21:44:54.410Z,62.70
2019-03-16T21:47:20.876Z,63.20
2019-03-16T21:49:47.367Z,63.00
2019-03-16T21:52:13.849Z,63.20
2019-03-16T21:54:40.144Z,63.80
2019-03-16T21:57:07.830Z,63.40
2019-03-16T21:59:34.256Z,63.60
2019-03-16T22:02:00.592Z,63.10
2019-03-16T22:04:26.938Z,63.00
2019-03-16T22:06:56.230Z,63.00
2019-03-16T22:09:23.029Z,63.40
2019-03-16T22:11:49.647Z,64.40
2019-03-16T22:14:16.020Z,64.00
2019-03-16T22:16:42.367Z,64.20
2019-03-16T22:19:08.808Z,64.40
2019-03-16T22:21:35.136Z,64.60
2019-03-16T22:24:01.534Z,64.80
2019-03-16T22:26:27.923Z,64.60
2019-03-16T22:28:54.314Z,64.30
2019-03-16T22:31:22.177Z,63.80
2019-03-16T22:33:54.275Z,63.80
2019-03-16T22:36:16.831Z,64.90
2019-03-16T22:38:43.268Z,65.40
2019-03-16T22:41:09.688Z,64.40
2019-03-16T22:43:36.194Z,64.40
2019-03-16T22:46:02.753Z,64.50
2019-03-16T22:48:29.127Z,64.30
2019-03-16T22:50:55.456Z,64.40
2019-03-16T22:53:22.052Z,65.10
2019-03-16T22:55:59.193Z,65.70
2019-03-16T22:58:25.597Z,65.00
2019-03-16T23:00:52.614Z,65.10
2019-03-16T23:03:19.467Z,65.80
2019-03-16T23:05:45.952Z,65.70
2019-03-16T23:08:13.152Z,65.20
2019-03-16T23:10:39.632Z,64.60
2019-03-16T23:13:09.433Z,64.60
2019-03-16T23:15:35.792Z,64.70
2019-03-16T23:18:02.224Z,65.90
2019-03-16T23:20:28.757Z,66.20
2019-03-16T23:22:55.252Z,65.40
2019-03-16T23:25:22.567Z,65.40
2019-03-16T23:27:49.482Z,65.70
2019-03-16T23:30:16.591Z,65.90
2019-03-16T23:32:43.214Z,65.90
2019-03-16T23:35:10.022Z,66.50
2019-03-16T23:37:36.490Z,68.00
2019-03-16T23:40:04.846Z,67.80
2019-03-16T23:42:31.291Z,67.40
2019-03-16T23:44:57.720Z,67.00
2019-03-16T23:47:24.043Z,66.50
2019-03-16T23:49:50.370Z,66.50
2019-03-16T23:52:16.860Z,66.70
2019-03-16T23:54:43.358Z,66.80
2019-03-16T23:57:09.729Z,66.30
2019-03-16T23:59:36.195Z,66.50
